Observation data for Childress on 01/17/2021      Previous  Date  Next       Current Mesonet Observations  Soil Data  Daily Summary Page  Observations in Plain Language
KCXS 170600Z 29009KT 04/M06 A3007 RMK A01 T00351056  RH  052%=      5-min Rain = 0
KCXS 170605Z 29010KT 04/M06 A3007 RMK A01 T00351056  RH  052%=      5-min Rain = 0
KCXS 170610Z 29009KT 03/M06 A3008 RMK A01 T00341056  RH  052%=      5-min Rain = 0
KCXS 170615Z 28009KT 03/M06 A3008 RMK A01 T00331056  RH  052%=      5-min Rain = 0
KCXS 170620Z 28010KT 03/M06 A3008 RMK A01 T00311056  RH  053%=      5-min Rain = 0
KCXS 170625Z 28009KT 03/M06 A3008 RMK A01 T00301055  RH  053%=      5-min Rain = 0
KCXS 170630Z 28009KT 03/M06 A3008 RMK A01 T00291056  RH  054%=      5-min Rain = 0
KCXS 170635Z 28009KT 03/M06 A3008 RMK A01 T00281055  RH  054%=      5-min Rain = 0
KCXS 170640Z 28007KT 03/M06 A3008 RMK A01 T00271055  RH  055%=      5-min Rain = 0
KCXS 170645Z 28007KT 03/M05 A3008 RMK A01 T00261053  RH  056%=      5-min Rain = 0
KCXS 170650Z 28008KT 03/M05 A3008 RMK A01 T00251051  RH  057%=      5-min Rain = 0
KCXS 170655Z 29008KT 03/M05 A3008 RMK A01 T00261049  RH  058%=      5-min Rain = 0
KCXS 170700Z 30008KT 03/M05 A3008 RMK A01 T00251049  RH  058%=      5-min Rain = 0
KCXS 170705Z 30008KT 02/M05 A3008 RMK A01 T00221050  RH  059%=      5-min Rain = 0
KCXS 170710Z 30009KT 02/M05 A3008 RMK A01 T00201051  RH  059%=      5-min Rain = 0
KCXS 170715Z 29009KT 02/M05 A3008 RMK A01 T00191051  RH  060%=      5-min Rain = 0
KCXS 170720Z 29009KT 02/M05 A3008 RMK A01 T00181051  RH  060%=      5-min Rain = 0
KCXS 170725Z 29009KT 02/M05 A3009 RMK A01 T00161050  RH  061%=      5-min Rain = 0
KCXS 170730Z 30008KT 01/M05 A3009 RMK A01 T00141050  RH  062%=      5-min Rain = 0
KCXS 170735Z 30008KT 01/M05 A3009 RMK A01 T00141050  RH  063%=      5-min Rain = 0
KCXS 170740Z 30008KT 01/M05 A3009 RMK A01 T00121051  RH  063%=      5-min Rain = 0
KCXS 170745Z 29008KT 01/M05 A3009 RMK A01 T00121050  RH  064%=      5-min Rain = 0
KCXS 170750Z 29009KT 01/M05 A3009 RMK A01 T00111050  RH  064%=      5-min Rain = 0
KCXS 170755Z 30008KT 01/M05 A301 RMK A01 T00101049  RH  065%=      5-min Rain = 0
KCXS 170800Z 30008KT 01/M05 A301 RMK A01 T00071050  RH  065%=      5-min Rain = 0
KCXS 170805Z 31008KT 01/M05 A301 RMK A01 T00061050  RH  067%=      5-min Rain = 0
KCXS 170810Z 31008KT 01/M05 A301 RMK A01 T00061049  RH  067%=      5-min Rain = 0
KCXS 170815Z 32009KT 01/M05 A301 RMK A01 T00071048  RH  067%=      5-min Rain = 0
KCXS 170820Z 32009KT 01/M05 A301 RMK A01 T00131045  RH  066%=      5-min Rain = 0
KCXS 170825Z 32009KT 02/M04 A301 RMK A01 T00161044  RH  064%=      5-min Rain = 0
KCXS 170830Z 31009KT 01/M05 A301 RMK A01 T00141046  RH  065%=      5-min Rain = 0
KCXS 170835Z 31009KT 01/M05 A301 RMK A01 T00131045  RH  066%=      5-min Rain = 0
KCXS 170840Z 32009KT 01/M04 A301 RMK A01 T00141044  RH  065%=      5-min Rain = 0
KCXS 170845Z 32009KT 01/M04 A301 RMK A01 T00141044  RH  065%=      5-min Rain = 0
KCXS 170850Z 32010KT 01/M05 A301 RMK A01 T00141045  RH  065%=      5-min Rain = 0
KCXS 170855Z 32009KT 01/M04 A301 RMK A01 T00141044  RH  065%=      5-min Rain = 0
KCXS 170900Z 32009KT 01/M04 A301 RMK A01 T00141044  RH  065%=      5-min Rain = 0
KCXS 170905Z 31008KT 01/M05 A301 RMK A01 T00111045  RH  067%=      5-min Rain = 0
KCXS 170910Z 31008KT 01/M05 A301 RMK A01 T00081045  RH  068%=      5-min Rain = 0
KCXS 170915Z 31009KT 01/M05 A301 RMK A01 T00071046  RH  068%=      5-min Rain = 0
KCXS 170920Z 31009KT 01/M05 A301 RMK A01 T00061046  RH  068%=      5-min Rain = 0
KCXS 170925Z 31009KT 01/M05 A301 RMK A01 T00061046  RH  068%=      5-min Rain = 0
KCXS 170930Z 31009KT 01/M05 A3011 RMK A01 T00081046  RH  068%=      5-min Rain = 0
KCXS 170935Z 31009KT 01/M05 A301 RMK A01 T00101046  RH  066%=      5-min Rain = 0
KCXS 170940Z 31009KT 01/M05 A301 RMK A01 T00101046  RH  066%=      5-min Rain = 0
KCXS 170945Z 31009KT 01/M05 A301 RMK A01 T00101046  RH  066%=      5-min Rain = 0
KCXS 170950Z 31009KT 01/M05 A301 RMK A01 T00091046  RH  067%=      5-min Rain = 0
KCXS 170955Z 31009KT 01/M05 A301 RMK A01 T00091046  RH  067%=      5-min Rain = 0
KCXS 171000Z 30009KT 01/M05 A301 RMK A01 T00091046  RH  067%=      5-min Rain = 0
KCXS 171005Z 31009KT 01/M05 A301 RMK A01 T00091046  RH  067%=      5-min Rain = 0
KCXS 171010Z 31010KT 01/M05 A301 RMK A01 T00101046  RH  066%=      5-min Rain = 0
KCXS 171015Z 31010KT 01/M05 A301 RMK A01 T00121046  RH  066%=      5-min Rain = 0
KCXS 171020Z 31010KT 01/M05 A301 RMK A01 T00121045  RH  066%=      5-min Rain = 0
KCXS 171025Z 31009KT 01/M04 A301 RMK A01 T00141044  RH  066%=      5-min Rain = 0
KCXS 171030Z 31009KT 02/M04 A301 RMK A01 T00161044  RH  065%=      5-min Rain = 0
KCXS 171035Z 31009KT 02/M04 A301 RMK A01 T00171043  RH  064%=      5-min Rain = 0
KCXS 171040Z 31009KT 02/M04 A301 RMK A01 T00191043  RH  064%=      5-min Rain = 0
KCXS 171045Z 32009KT 02/M04 A301 RMK A01 T00211042  RH  063%=      5-min Rain = 0
KCXS 171050Z 32009KT 02/M04 A301 RMK A01 T00231041  RH  063%=      5-min Rain = 0
KCXS 171055Z 32009KT 03/M04 A301 RMK A01 T00251041  RH  062%=      5-min Rain = 0
KCXS 171100Z 32009KT 03/M04 A301 RMK A01 T00271040  RH  062%=      5-min Rain = 0
KCXS 171105Z 32008KT 03/M04 A301 RMK A01 T00271040  RH  062%=      5-min Rain = 0
KCXS 171110Z 32008KT 03/M04 A301 RMK A01 T00271040  RH  062%=      5-min Rain = 0
KCXS 171115Z 32008KT 03/M04 A301 RMK A01 T00281039  RH  062%=      5-min Rain = 0
KCXS 171120Z 31008KT 03/M04 A301 RMK A01 T00291039  RH  061%=      5-min Rain = 0
KCXS 171125Z 31008KT 03/M04 A301 RMK A01 T00301039  RH  061%=      5-min Rain = 0
KCXS 171130Z 31008KT 03/M04 A301 RMK A01 T00301039  RH  061%=      5-min Rain = 0
KCXS 171135Z 31008KT 03/M04 A301 RMK A01 T00291040  RH  061%=      5-min Rain = 0
KCXS 171140Z 31008KT 03/M04 A301 RMK A01 T00281041  RH  061%=      5-min Rain = 0
KCXS 171145Z 31008KT 03/M04 A3011 RMK A01 T00271042  RH  061%=      5-min Rain = 0
KCXS 171150Z 31008KT 03/M04 A3011 RMK A01 T00251043  RH  061%=      5-min Rain = 0
KCXS 171155Z 31009KT 02/M04 A3011 RMK A01 T00231043  RH  062%=      5-min Rain = 0
KCXS 171200Z 31009KT 02/M04 A3012 RMK A01 T00211043  RH  063%=      5-min Rain = 0
KCXS 171205Z 31008KT 02/M04 A3012 RMK A01 T00181043  RH  064%=      5-min Rain = 0
KCXS 171210Z 31008KT 02/M04 A3012 RMK A01 T00161044  RH  065%=      5-min Rain = 0
KCXS 171215Z 30008KT 01/M04 A3012 RMK A01 T00131044  RH  066%=      5-min Rain = 0
KCXS 171220Z 30008KT 01/M04 A3013 RMK A01 T00101044  RH  067%=      5-min Rain = 0
KCXS 171225Z 30008KT 01/M04 A3013 RMK A01 T00081043  RH  069%=      5-min Rain = 0
KCXS 171230Z 30008KT 01/M04 A3013 RMK A01 T00071043  RH  069%=      5-min Rain = 0
KCXS 171235Z 29008KT 01/M04 A3013 RMK A01 T00051043  RH  070%=      5-min Rain = 0
KCXS 171240Z 29008KT 01/M04 A3013 RMK A01 T00061042  RH  071%=      5-min Rain = 0
KCXS 171245Z 29008KT 01/M04 A3013 RMK A01 T00051042  RH  071%=      5-min Rain = 0
KCXS 171250Z 28007KT 00/M04 A3014 RMK A01 T00041042  RH  071%=      5-min Rain = 0
KCXS 171255Z 28008KT 00/M04 A3014 RMK A01 T00021043  RH  072%=      5-min Rain = 0
KCXS 171300Z 28008KT 00/M04 A3014 RMK A01 T00021043  RH  072%=      5-min Rain = 0
KCXS 171305Z 28008KT 00/M04 A3014 RMK A01 T00041043  RH  072%=      5-min Rain = 0
KCXS 171310Z 28009KT 00/M04 A3015 RMK A01 T00041042  RH  072%=      5-min Rain = 0
KCXS 171315Z 27008KT 00/M04 A3015 RMK A01 T00041042  RH  071%=      5-min Rain = 0
KCXS 171320Z 27008KT 00/M04 A3015 RMK A01 T00031042  RH  072%=      5-min Rain = 0
KCXS 171325Z 27009KT 00/M04 A3015 RMK A01 T00041043  RH  071%=      5-min Rain = 0
KCXS 171330Z 27008KT 01/M04 A3015 RMK A01 T00061043  RH  070%=      5-min Rain = 0
KCXS 171335Z 28008KT 01/M04 A3015 RMK A01 T00091043  RH  069%=      5-min Rain = 0
KCXS 171340Z 28008KT 01/M04 A3015 RMK A01 T00111044  RH  067%=      5-min Rain = 0
KCXS 171345Z 28008KT 01/M04 A3015 RMK A01 T00111044  RH  067%=      5-min Rain = 0
KCXS 171350Z 28008KT 01/M04 A3015 RMK A01 T00111044  RH  067%=      5-min Rain = 0
KCXS 171355Z 28008KT 01/M04 A3015 RMK A01 T00101044  RH  067%=      5-min Rain = 0
KCXS 171400Z 28008KT 01/M04 A3016 RMK A01 T00111044  RH  067%=      5-min Rain = 0
KCXS 171405Z 29008KT 01/M04 A3016 RMK A01 T00141044  RH  066%=      5-min Rain = 0
KCXS 171410Z 28009KT 01/M04 A3016 RMK A01 T00141044  RH  066%=      5-min Rain = 0
KCXS 171415Z 29009KT 01/M04 A3016 RMK A01 T00131044  RH  066%=      5-min Rain = 0
KCXS 171420Z 28008KT 01/M04 A3016 RMK A01 T00131043  RH  066%=      5-min Rain = 0
KCXS 171425Z 28008KT 01/M04 A3016 RMK A01 T00141043  RH  066%=      5-min Rain = 0
KCXS 171430Z 28008KT 02/M04 A3016 RMK A01 T00151042  RH  066%=      5-min Rain = 0
KCXS 171435Z 28007KT 02/M04 A3016 RMK A01 T00171041  RH  066%=      5-min Rain = 0
KCXS 171440Z 28007KT 02/M04 A3016 RMK A01 T00181041  RH  065%=      5-min Rain = 0
KCXS 171445Z 28007KT 02/M04 A3016 RMK A01 T00201041  RH  064%=      5-min Rain = 0
KCXS 171450Z 28007KT 02/M04 A3017 RMK A01 T00211040  RH  064%=      5-min Rain = 0
KCXS 171455Z 28007KT 02/M04 A3017 RMK A01 T00231039  RH  064%=      5-min Rain = 0
KCXS 171500Z 28007KT 03/M04 A3017 RMK A01 T00261039  RH  063%=      5-min Rain = 0
KCXS 171505Z 28008KT 03/M04 A3018 RMK A01 T00281038  RH  062%=      5-min Rain = 0
KCXS 171510Z 28007KT 03/M04 A3018 RMK A01 T00301036  RH  062%=      5-min Rain = 0
KCXS 171515Z 28008KT 03/M04 A3018 RMK A01 T00311037  RH  061%=      5-min Rain = 0
KCXS 171520Z 28007KT 03/M04 A3018 RMK A01 T00321035  RH  062%=      5-min Rain = 0
KCXS 171525Z 28007KT 03/M03 A3018 RMK A01 T00321033  RH  063%=      5-min Rain = 0
KCXS 171530Z 28008KT 03/M03 A3018 RMK A01 T00331032  RH  062%=      5-min Rain = 0
KCXS 171535Z 28007KT 04/M03 A3018 RMK A01 T00361033  RH  061%=      5-min Rain = 0
KCXS 171540Z 28007KT 04/M03 A3018 RMK A01 T00391033  RH  060%=      5-min Rain = 0
KCXS 171545Z 28007KT 04/M03 A3018 RMK A01 T00411033  RH  059%=      5-min Rain = 0
KCXS 171550Z 29006KT 05/M03 A3018 RMK A01 T00451030  RH  059%=      5-min Rain = 0
KCXS 171555Z 29007KT 05/M03 A3018 RMK A01 T00501034  RH  055%=      5-min Rain = 0
KCXS 171600Z 29008KT 05/M03 A3019 RMK A01 T00541034  RH  053%=      5-min Rain = 0
KCXS 171605Z 30009KT 06/M04 A3019 RMK A01 T00581035  RH  051%=      5-min Rain = 0
KCXS 171610Z 30008KT 06/M04 A3019 RMK A01 T00591036  RH  051%=      5-min Rain = 0
KCXS 171615Z 31007KT 06/M04 A3019 RMK A01 T00611035  RH  050%=      5-min Rain = 0
KCXS 171620Z 31007KT 06/M04 A3019 RMK A01 T00611037  RH  050%=      5-min Rain = 0
KCXS 171625Z 30007KT 06/M04 A3019 RMK A01 T00631036  RH  049%=      5-min Rain = 0
KCXS 171630Z 30008KT 06/M04 A3019 RMK A01 T00641038  RH  048%=      5-min Rain = 0
KCXS 171635Z 30008KT 07/M04 A3019 RMK A01 T00651038  RH  048%=      5-min Rain = 0
KCXS 171640Z 29007KT 07/M04 A302 RMK A01 T00681036  RH  048%=      5-min Rain = 0
KCXS 171645Z 29007KT 07/M04 A3019 RMK A01 T00691038  RH  047%=      5-min Rain = 0
KCXS 171650Z 30007KT 07/M04 A302 RMK A01 T00721037  RH  046%=      5-min Rain = 0
KCXS 171655Z 30007KT 07/M04 A302 RMK A01 T00741036  RH  046%=      5-min Rain = 0
KCXS 171700Z 31008KT 08/M04 A302 RMK A01 T00761036  RH  045%=      5-min Rain = 0
KCXS 171705Z 32008KT 08/M04 A302 RMK A01 T00801039  RH  043%=      5-min Rain = 0
KCXS 171710Z 32007KT 09/M04 A302 RMK A01 T00851037  RH  042%=      5-min Rain = 0
KCXS 171715Z 32009KT 08/M04 A3019 RMK A01 T00821040  RH  042%=      5-min Rain = 0
KCXS 171720Z 32009KT 08/M04 A3019 RMK A01 T00831042  RH  041%=      5-min Rain = 0
KCXS 171725Z 33008KT 08/M04 A3019 RMK A01 T00841040  RH  042%=      5-min Rain = 0
KCXS 171730Z 32008KT 08/M04 A3019 RMK A01 T00841040  RH  041%=      5-min Rain = 0
KCXS 171735Z 32009KT 08/M04 A3019 RMK A01 T00841039  RH  042%=      5-min Rain = 0
KCXS 171740Z 32009KT 09/M04 A3018 RMK A01 T00861038  RH  041%=      5-min Rain = 0
KCXS 171745Z 31008KT 09/M04 A3018 RMK A01 T00871038  RH  041%=      5-min Rain = 0
KCXS 171750Z 32009KT 09/M04 A3018 RMK A01 T00891037  RH  041%=      5-min Rain = 0
KCXS 171755Z 32008KT 09/M04 A3017 RMK A01 T00911040  RH  039%=      5-min Rain = 0
KCXS 171800Z 31007KT 09/M04 A3017 RMK A01 T00921040  RH  039%=      5-min Rain = 0
KCXS 171805Z 31007KT 09/M04 A3017 RMK A01 T00941038  RH  040%=      5-min Rain = 0
KCXS 171810Z 31007KT 09/M04 A3017 RMK A01 T00941038  RH  039%=      5-min Rain = 0
KCXS 171815Z 31006KT 09/M04 A3016 RMK A01 T00941038  RH  039%=      5-min Rain = 0
KCXS 171820Z 32007KT 10/M04 A3016 RMK A01 T00971036  RH  039%=      5-min Rain = 0
KCXS 171825Z 31006KT 10/M04 A3016 RMK A01 T00991037  RH  038%=      5-min Rain = 0
KCXS 171830Z 30006G11KT 10/M04 A3015 RMK A01 T00981040  RH  038%=      5-min Rain = 0
KCXS 171835Z 33006KT 10/M04 A3015 RMK A01 T00991039  RH  038%=      5-min Rain = 0
KCXS 171840Z 31008KT 10/M04 A3014 RMK A01 T01021041  RH  036%=      5-min Rain = 0
KCXS 171845Z 32008KT 10/M05 A3014 RMK A01 T01031046  RH  035%=      5-min Rain = 0
KCXS 171850Z 33006KT 10/M05 A3014 RMK A01 T01031045  RH  035%=      5-min Rain = 0
KCXS 171855Z 32006KT 10/M05 A3013 RMK A01 T01031046  RH  035%=      5-min Rain = 0
KCXS 171900Z 30005KT 11/M04 A3013 RMK A01 T01071044  RH  035%=      5-min Rain = 0
KCXS 171905Z 30006KT 11/M04 A3013 RMK A01 T01141044  RH  033%=      5-min Rain = 0
KCXS 171910Z 32007KT 11/M05 A3012 RMK A01 T01121050  RH  032%=      5-min Rain = 0
KCXS 171915Z 33007KT 11/M05 A3012 RMK A01 T01141053  RH  031%=      5-min Rain = 0
KCXS 171920Z 32006KT 12/M05 A3012 RMK A01 T01151051  RH  031%=      5-min Rain = 0
KCXS 171925Z 33006G12KT 12/M06 A3012 RMK A01 T01171055  RH  030%=      5-min Rain = 0
KCXS 171930Z 32008G14KT 12/M06 A3012 RMK A01 T01181055  RH  029%=      5-min Rain = 0
KCXS 171935Z 33010G15KT 12/M07 A3012 RMK A01 T01241073  RH  025%=      5-min Rain = 0
KCXS 171940Z 34010KT 12/M07 A3012 RMK A01 T01221074  RH  025%=      5-min Rain = 0
KCXS 171945Z 34009G15KT 12/M08 A3011 RMK A01 T01231075  RH  024%=      5-min Rain = 0
KCXS 171950Z 33009G15KT 12/M07 A3011 RMK A01 T01211074  RH  025%=      5-min Rain = 0
KCXS 171955Z 33011KT 13/M07 A3011 RMK A01 T01261072  RH  024%=      5-min Rain = 0
KCXS 172000Z 33010KT 12/M07 A301 RMK A01 T01241074  RH  024%=      5-min Rain = 0
KCXS 172005Z 32009KT 13/M07 A301 RMK A01 T01261073  RH  024%=      5-min Rain = 0
KCXS 172010Z 31009G14KT 13/M07 A301 RMK A01 T01271073  RH  024%=      5-min Rain = 0
KCXS 172015Z 34007G12KT 13/M07 A301 RMK A01 T01261074  RH  024%=      5-min Rain = 0
KCXS 172020Z 33005KT 13/M08 A301 RMK A01 T01251076  RH  024%=      5-min Rain = 0
KCXS 172025Z 33008KT 13/M08 A301 RMK A01 T01271075  RH  024%=      5-min Rain = 0
KCXS 172030Z 32008KT 13/M08 A3009 RMK A01 T01291075  RH  023%=      5-min Rain = 0
KCXS 172035Z 33009KT 13/M08 A3009 RMK A01 T01301076  RH  023%=      5-min Rain = 0
KCXS 172040Z 34008KT 13/M08 A3009 RMK A01 T01291076  RH  023%=      5-min Rain = 0
KCXS 172045Z 33008G13KT 13/M08 A3009 RMK A01 T01281076  RH  023%=      5-min Rain = 0
KCXS 172050Z 33008G13KT 13/M08 A3009 RMK A01 T01301075  RH  023%=      5-min Rain = 0
KCXS 172055Z 33008KT 13/M08 A3009 RMK A01 T01311075  RH  023%=      5-min Rain = 0
KCXS 172100Z 31008G13KT 13/M08 A3009 RMK A01 T01301077  RH  023%=      5-min Rain = 0
KCXS 172105Z 32006KT 13/M08 A3009 RMK A01 T01301076  RH  023%=      5-min Rain = 0
KCXS 172110Z 32009KT 13/M07 A3009 RMK A01 T01311074  RH  023%=      5-min Rain = 0
KCXS 172115Z 29010G15KT 13/M07 A3009 RMK A01 T01321073  RH  023%=      5-min Rain = 0
KCXS 172120Z 31008KT 13/M07 A3009 RMK A01 T01311074  RH  023%=      5-min Rain = 0
KCXS 172125Z 34009KT 13/M07 A3009 RMK A01 T01321072  RH  023%=      5-min Rain = 0
KCXS 172130Z 32007KT 13/M07 A3009 RMK A01 T01341070  RH  023%=      5-min Rain = 0
KCXS 172135Z 33009G15KT 14/M07 A3008 RMK A01 T01351069  RH  024%=      5-min Rain = 0
KCXS 172140Z 31008KT 13/M07 A3008 RMK A01 T01341070  RH  024%=      5-min Rain = 0
KCXS 172145Z 30005G10KT 14/M07 A3008 RMK A01 T01351071  RH  023%=      5-min Rain = 0
KCXS 172150Z 30007KT 14/M07 A3008 RMK A01 T01381069  RH  023%=      5-min Rain = 0
KCXS 172155Z 31008KT 14/M07 A3008 RMK A01 T01391067  RH  023%=      5-min Rain = 0
KCXS 172200Z 30005KT 14/M07 A3008 RMK A01 T01381069  RH  023%=      5-min Rain = 0
KCXS 172205Z 29004KT 14/M07 A3007 RMK A01 T01361070  RH  023%=      5-min Rain = 0
KCXS 172210Z 30002KT 14/M07 A3007 RMK A01 T01351071  RH  023%=      5-min Rain = 0
KCXS 172215Z 29007KT 14/M07 A3007 RMK A01 T01361068  RH  024%=      5-min Rain = 0
KCXS 172220Z 29008KT 14/M07 A3007 RMK A01 T01351065  RH  024%=      5-min Rain = 0
KCXS 172225Z 30009KT 14/M06 A3007 RMK A01 T01351064  RH  024%=      5-min Rain = 0
KCXS 172230Z 31005KT 13/M07 A3007 RMK A01 T01331066  RH  025%=      5-min Rain = 0
KCXS 172235Z 32006KT 13/M07 A3007 RMK A01 T01321066  RH  025%=      5-min Rain = 0
KCXS 172240Z 30006KT 13/M07 A3007 RMK A01 T01321066  RH  025%=      5-min Rain = 0
KCXS 172245Z 29005KT 13/M07 A3006 RMK A01 T01321066  RH  025%=      5-min Rain = 0
KCXS 172250Z 29006KT 13/M07 A3006 RMK A01 T01311067  RH  025%=      5-min Rain = 0
KCXS 172255Z 30005KT 13/M07 A3006 RMK A01 T01301066  RH  025%=      5-min Rain = 0
KCXS 172300Z 27006KT 13/M07 A3006 RMK A01 T01281067  RH  025%=      5-min Rain = 0
KCXS 172305Z 28006KT 13/M07 A3006 RMK A01 T01261067  RH  026%=      5-min Rain = 0
KCXS 172310Z 29005KT 12/M07 A3006 RMK A01 T01231067  RH  026%=      5-min Rain = 0
KCXS 172315Z 29004KT 12/M07 A3006 RMK A01 T01201067  RH  026%=      5-min Rain = 0
KCXS 172320Z 27003KT 12/M07 A3006 RMK A01 T01231067  RH  026%=      5-min Rain = 0
KCXS 172325Z 26003KT 12/M07 A3006 RMK A01 T01221067  RH  026%=      5-min Rain = 0
KCXS 172330Z 27004KT 12/M07 A3006 RMK A01 T01191067  RH  027%=      5-min Rain = 0
KCXS 172335Z 25005KT 11/M07 A3006 RMK A01 T01131066  RH  028%=      5-min Rain = 0
KCXS 172340Z 23005KT 11/M07 A3006 RMK A01 T01071068  RH  029%=      5-min Rain = 0
KCXS 172345Z 22006KT 10/M07 A3006 RMK A01 T01031069  RH  029%=      5-min Rain = 0
KCXS 172350Z 22006KT 10/M07 A3006 RMK A01 T01021069  RH  029%=      5-min Rain = 0
KCXS 172355Z 22005KT 10/M07 A3006 RMK A01 T01021069  RH  029%=      5-min Rain = 0
KCXS 180000Z 21005KT 10/M07 A3006 RMK A01 T01031069  RH  029%=      5-min Rain = 0
KCXS 180005Z 21006KT 10/M07 A3006 RMK A01 T00991068  RH  030%=      5-min Rain = 0
KCXS 180010Z 21006KT 09/M07 A3006 RMK A01 T00941067  RH  031%=      5-min Rain = 0
KCXS 180015Z 21006KT 09/M07 A3006 RMK A01 T00921067  RH  032%=      5-min Rain = 0
KCXS 180020Z 21006KT 09/M07 A3006 RMK A01 T00931067  RH  032%=      5-min Rain = 0
KCXS 180025Z 21006KT 09/M07 A3007 RMK A01 T00911066  RH  032%=      5-min Rain = 0
KCXS 180030Z 21007KT 09/M07 A3006 RMK A01 T00881065  RH  033%=      5-min Rain = 0
KCXS 180035Z 21008KT 09/M06 A3006 RMK A01 T00851063  RH  035%=      5-min Rain = 0
KCXS 180040Z 21007KT 09/M06 A3006 RMK A01 T00851063  RH  034%=      5-min Rain = 0
KCXS 180045Z 21007KT 08/M06 A3006 RMK A01 T00831062  RH  035%=      5-min Rain = 0
KCXS 180050Z 21008KT 08/M06 A3006 RMK A01 T00821061  RH  036%=      5-min Rain = 0
KCXS 180055Z 20008KT 08/M06 A3006 RMK A01 T00801060  RH  036%=      5-min Rain = 0
KCXS 180100Z 20008KT 08/M06 A3006 RMK A01 T00801060  RH  037%=      5-min Rain = 0
KCXS 180105Z 20008KT 08/M06 A3006 RMK A01 T00791058  RH  037%=      5-min Rain = 0
KCXS 180110Z 21008KT 08/M06 A3006 RMK A01 T00751058  RH  038%=      5-min Rain = 0
KCXS 180115Z 21009KT 07/M06 A3006 RMK A01 T00721056  RH  040%=      5-min Rain = 0
KCXS 180120Z 21009KT 07/M06 A3006 RMK A01 T00691055  RH  041%=      5-min Rain = 0
KCXS 180125Z 21009KT 07/M06 A3006 RMK A01 T00681055  RH  041%=      5-min Rain = 0
KCXS 180130Z 21009KT 07/M05 A3006 RMK A01 T00681054  RH  041%=      5-min Rain = 0
KCXS 180135Z 21009KT 07/M05 A3006 RMK A01 T00671054  RH  042%=      5-min Rain = 0
KCXS 180140Z 21009KT 07/M05 A3005 RMK A01 T00661053  RH  043%=      5-min Rain = 0
KCXS 180145Z 21010KT 07/M05 A3005 RMK A01 T00671052  RH  042%=      5-min Rain = 0
KCXS 180150Z 21010KT 07/M05 A3005 RMK A01 T00691052  RH  042%=      5-min Rain = 0
KCXS 180155Z 21010KT 07/M05 A3005 RMK A01 T00691053  RH  042%=      5-min Rain = 0
KCXS 180200Z 21010KT 07/M05 A3005 RMK A01 T00681053  RH  042%=      5-min Rain = 0
KCXS 180205Z 21010KT 07/M05 A3005 RMK A01 T00681053  RH  042%=      5-min Rain = 0
KCXS 180210Z 21010KT 07/M05 A3005 RMK A01 T00691053  RH  042%=      5-min Rain = 0
KCXS 180215Z 21010KT 07/M05 A3005 RMK A01 T00671053  RH  042%=      5-min Rain = 0
KCXS 180220Z 21010KT 07/M05 A3005 RMK A01 T00651053  RH  043%=      5-min Rain = 0
KCXS 180225Z 21010KT 07/M05 A3005 RMK A01 T00651053  RH  043%=      5-min Rain = 0
KCXS 180230Z 21011KT 07/M05 A3004 RMK A01 T00661053  RH  042%=      5-min Rain = 0
KCXS 180235Z 21011KT 07/M05 A3004 RMK A01 T00671053  RH  042%=      5-min Rain = 0
KCXS 180240Z 21011KT 07/M05 A3004 RMK A01 T00671054  RH  042%=      5-min Rain = 0
KCXS 180245Z 21011KT 07/M05 A3004 RMK A01 T00661054  RH  042%=      5-min Rain = 0
KCXS 180250Z 21011KT 07/M05 A3004 RMK A01 T00671054  RH  042%=      5-min Rain = 0
KCXS 180255Z 21012KT 07/M05 A3004 RMK A01 T00661054  RH  042%=      5-min Rain = 0
KCXS 180300Z 20012KT 07/M05 A3003 RMK A01 T00661054  RH  042%=      5-min Rain = 0
KCXS 180305Z 20011KT 06/M05 A3003 RMK A01 T00631054  RH  043%=      5-min Rain = 0
KCXS 180310Z 20011KT 06/M06 A3003 RMK A01 T00621055  RH  043%=      5-min Rain = 0
KCXS 180315Z 20011KT 06/M06 A3003 RMK A01 T00611055  RH  043%=      5-min Rain = 0
KCXS 180320Z 20011KT 06/M06 A3003 RMK A01 T00601055  RH  044%=      5-min Rain = 0
KCXS 180325Z 20011KT 06/M06 A3003 RMK A01 T00591055  RH  044%=      5-min Rain = 0
KCXS 180330Z 20011KT 06/M05 A3003 RMK A01 T00571054  RH  045%=      5-min Rain = 0
KCXS 180335Z 21011KT 06/M05 A3003 RMK A01 T00551054  RH  046%=      5-min Rain = 0
KCXS 180340Z 21011KT 05/M05 A3003 RMK A01 T00531054  RH  046%=      5-min Rain = 0
KCXS 180345Z 21011KT 05/M05 A3003 RMK A01 T00531054  RH  046%=      5-min Rain = 0
KCXS 180350Z 21011KT 05/M05 A3003 RMK A01 T00511053  RH  047%=      5-min Rain = 0
KCXS 180355Z 21011KT 05/M05 A3003 RMK A01 T00501053  RH  047%=      5-min Rain = 0
KCXS 180400Z 21011KT 05/M05 A3003 RMK A01 T00501053  RH  047%=      5-min Rain = 0
KCXS 180405Z 21011KT 05/M05 A3002 RMK A01 T00501053  RH  047%=      5-min Rain = 0
KCXS 180410Z 21011KT 05/M05 A3002 RMK A01 T00491053  RH  048%=      5-min Rain = 0
KCXS 180415Z 21011KT 05/M05 A3002 RMK A01 T00471053  RH  048%=      5-min Rain = 0
KCXS 180420Z 21011KT 04/M05 A3002 RMK A01 T00441052  RH  050%=      5-min Rain = 0
KCXS 180425Z 21011KT 04/M05 A3002 RMK A01 T00441052  RH  050%=      5-min Rain = 0
KCXS 180430Z 21011KT 04/M05 A3002 RMK A01 T00431051  RH  050%=      5-min Rain = 0
KCXS 180435Z 21011KT 04/M05 A3001 RMK A01 T00431051  RH  050%=      5-min Rain = 0
KCXS 180440Z 21011KT 04/M05 A3001 RMK A01 T00441051  RH  050%=      5-min Rain = 0
KCXS 180445Z 21011KT 04/M05 A3001 RMK A01 T00431051  RH  050%=      5-min Rain = 0
KCXS 180450Z 21010KT 04/M05 A3001 RMK A01 T00431051  RH  050%=      5-min Rain = 0
KCXS 180455Z 21010KT 04/M05 A3001 RMK A01 T00401052  RH  051%=      5-min Rain = 0
KCXS 180500Z 21010KT 04/M05 A3001 RMK A01 T00381051  RH  052%=      5-min Rain = 0
KCXS 180505Z 21010KT 04/M05 A30 RMK A01 T00371051  RH  053%=      5-min Rain = 0
KCXS 180510Z 21009KT 04/M05 A30 RMK A01 T00351051  RH  053%=      5-min Rain = 0
KCXS 180515Z 21010KT 04/M05 A30 RMK A01 T00351051  RH  053%=      5-min Rain = 0
KCXS 180520Z 21010KT 04/M05 A30 RMK A01 T00361050  RH  053%=      5-min Rain = 0
KCXS 180525Z 21010KT 04/M05 A2999 RMK A01 T00361050  RH  053%=      5-min Rain = 0
KCXS 180530Z 20010KT 04/M05 A2999 RMK A01 T00391049  RH  053%=      5-min Rain = 0
KCXS 180535Z 21009KT 04/M05 A2999 RMK A01 T00381048  RH  054%=      5-min Rain = 0
KCXS 180540Z 20011KT 04/M05 A2999 RMK A01 T00381047  RH  054%=      5-min Rain = 0
KCXS 180545Z 21011KT 04/M05 A2998 RMK A01 T00391046  RH  054%=      5-min Rain = 0
KCXS 180550Z 21011KT 04/M05 A2998 RMK A01 T00371047  RH  054%=      5-min Rain = 0
KCXS 180555Z 21010KT 03/M05 A2998 RMK A01 T00321048  RH  056%=      5-min Rain = 0

Page generated in 0.0288 seconds.